Time;durP1;ratioP1;P1;durP2;ratioP2;P2;SDS_P1;SDS_P2;PMS_P1;PMS_P2;Temp;Humidity;BMP_temperature;BMP_pressure;BME280_temperature;BME280_humidity;BME280_pressure;Samples;Min_cycle;Max_cycle;Signal;HPM_P1;HPM_P2
2021/12/28 00:01:10;;;;;;;0.00;0.00;;;1.40;99.90;;;;;;4881322;29;20025;-74
2021/12/28 00:03:37;;;;;;;0.00;0.00;;;1.40;99.90;;;;;;4880998;29;20503;-69
2021/12/28 00:06:04;;;;;;;0.00;0.00;;;1.40;99.90;;;;;;4879653;29;20029;-72
2021/12/28 00:08:29;;;;;;;0.00;0.00;;;1.50;99.90;;;;;;4878807;29;20374;-70
2021/12/28 00:10:56;;;;;;;0.00;0.00;;;1.50;99.90;;;;;;4879412;29;20055;-74
2021/12/28 00:13:22;;;;;;;0.00;0.00;;;1.50;99.90;;;;;;4880483;29;20084;-72
2021/12/28 00:18:24;;;;;;;0.00;0.00;;;1.70;99.90;;;;;;4888008;29;20033;-73
2021/12/28 00:20:53;;;;;;;0.00;0.00;;;1.70;99.90;;;;;;4883390;29;20029;-71
2021/12/28 00:23:20;;;;;;;0.00;0.00;;;1.70;99.90;;;;;;4881798;29;20061;-71
2021/12/28 00:25:48;;;;;;;0.00;0.00;;;1.70;99.90;;;;;;4880127;29;20402;-70
2021/12/28 00:28:14;;;;;;;0.00;0.00;;;1.70;99.90;;;;;;4881520;29;20166;-69
2021/12/28 00:30:40;;;;;;;0.00;0.00;;;1.80;99.90;;;;;;4877223;29;20036;-73
2021/12/28 00:33:06;;;;;;;0.00;0.00;;;1.80;99.90;;;;;;4879607;29;20482;-72
2021/12/28 00:35:35;;;;;;;0.00;0.00;;;1.80;99.90;;;;;;4879188;29;20367;-71
2021/12/28 00:38:03;;;;;;;0.00;0.00;;;1.80;99.90;;;;;;4877620;29;20037;-74
2021/12/28 00:40:29;;;;;;;0.00;0.00;;;1.80;99.90;;;;;;4879350;29;20029;-72
2021/12/28 00:42:55;;;;;;;0.00;0.00;;;1.80;99.90;;;;;;4882129;29;20033;-72
2021/12/28 00:45:21;;;;;;;0.00;0.00;;;1.90;99.90;;;;;;4878015;29;20025;-72
2021/12/28 00:47:47;;;;;;;0.00;0.00;;;1.90;99.90;;;;;;4880375;29;20124;-70
2021/12/28 00:50:15;;;;;;;0.00;0.00;;;1.90;99.90;;;;;;4879568;29;20131;-70
2021/12/28 00:52:41;;;;;;;0.00;0.00;;;1.80;99.90;;;;;;4878659;29;20041;-70
2021/12/28 00:55:08;;;;;;;0.00;0.00;;;1.90;99.90;;;;;;4878248;29;20037;-71
2021/12/28 00:57:34;;;;;;;0.00;0.00;;;1.90;99.90;;;;;;4878892;29;20044;-72
2021/12/28 01:00:00;;;;;;;0.00;0.00;;;1.90;99.90;;;;;;4879221;29;20033;-72
2021/12/28 01:02:25;;;;;;;0.00;0.00;;;1.90;99.90;;;;;;4878164;29;20029;-72
2021/12/28 01:04:51;;;;;;;0.00;0.00;;;1.90;99.90;;;;;;4877944;29;20065;-72
2021/12/28 01:07:17;;;;;;;0.00;0.00;;;1.90;99.90;;;;;;4878495;29;20456;-70
2021/12/28 01:09:44;;;;;;;0.00;0.00;;;1.90;99.90;;;;;;4879065;29;20036;-72
2021/12/28 01:12:10;;;;;;;0.00;0.00;;;1.90;99.90;;;;;;4878934;29;20040;-69
2021/12/28 01:14:37;;;;;;;0.00;0.00;;;1.90;99.90;;;;;;4879480;29;20041;-73
2021/12/28 01:17:04;;;;;;;0.00;0.00;;;1.80;99.90;;;;;;4876944;29;20112;-70
2021/12/28 01:19:29;;;;;;;0.00;0.00;;;1.80;99.90;;;;;;4878511;29;20041;-69
2021/12/28 01:21:55;;;;;;;0.00;0.00;;;1.80;99.90;;;;;;4878175;29;20043;-73
2021/12/28 01:24:21;;;;;;;0.00;0.00;;;1.80;99.90;;;;;;4879100;29;20025;-69
2021/12/28 01:26:47;;;;;;;0.00;0.00;;;1.70;99.90;;;;;;4880213;29;20104;-69
2021/12/28 01:29:13;;;;;;;0.00;0.00;;;1.70;99.90;;;;;;4877889;29;20037;-71
2021/12/28 01:31:39;;;;;;;0.00;0.00;;;1.80;99.90;;;;;;4877832;29;20041;-71
2021/12/28 01:34:05;;;;;;;0.00;0.00;;;1.80;99.90;;;;;;4878625;29;20029;-70
2021/12/28 01:36:31;;;;;;;0.00;0.00;;;1.80;99.90;;;;;;4877503;29;21707;-71
2021/12/28 01:38:57;;;;;;;0.00;0.00;;;1.80;99.90;;;;;;4878962;29;20041;-69
2021/12/28 01:41:22;;;;;;;0.00;0.00;;;1.80;99.90;;;;;;4877913;29;20033;-71
2021/12/28 01:43:55;;;;;;;0.00;0.00;;;1.80;99.90;;;;;;4877576;29;20040;-70
2021/12/28 01:46:22;;;;;;;0.00;0.00;;;1.80;99.90;;;;;;4877692;29;20040;-68
2021/12/28 01:48:48;;;;;;;0.00;0.00;;;1.80;99.90;;;;;;4878276;29;20029;-70
2021/12/28 01:51:19;;;;;;;0.00;0.00;;;1.80;99.90;;;;;;4881148;29;20396;-69
2021/12/28 01:53:46;;;;;;;0.00;0.00;;;1.80;99.90;;;;;;4875778;29;20097;-70
2021/12/28 01:56:15;;;;;;;0.00;0.00;;;1.90;99.90;;;;;;4879218;29;20084;-69
2021/12/28 01:58:42;;;;;;;0.00;0.00;;;1.90;99.90;;;;;;4876727;29;20374;-70
2021/12/28 02:01:08;;;;;;;0.00;0.00;;;1.90;99.90;;;;;;4880009;29;20107;-69
2021/12/28 02:03:38;;;;;;;0.00;0.00;;;1.90;99.90;;;;;;4878129;29;20040;-70
2021/12/28 02:06:04;;;;;;;0.00;0.00;;;1.90;99.90;;;;;;4876397;29;20540;-71
2021/12/28 02:08:30;;;;;;;0.00;0.00;;;1.90;99.90;;;;;;4877508;29;20115;-69
2021/12/28 02:10:57;;;;;;;0.00;0.00;;;1.90;99.90;;;;;;4878099;29;20048;-72
2021/12/28 02:13:24;;;;;;;0.00;0.00;;;1.90;99.90;;;;;;4875972;29;20516;-71
2021/12/28 02:15:50;;;;;;;0.00;0.00;;;1.90;99.90;;;;;;4878460;29;20189;-71
2021/12/28 02:18:20;;;;;;;0.00;0.00;;;1.90;99.90;;;;;;4876430;29;20033;-69
2021/12/28 02:20:46;;;;;;;0.00;0.00;;;1.90;99.90;;;;;;4874298;29;20132;-72
2021/12/28 02:23:12;;;;;;;0.00;0.00;;;1.90;99.90;;;;;;4876871;29;20173;-70
2021/12/28 02:25:38;;;;;;;0.00;0.00;;;1.90;99.90;;;;;;4878503;29;20401;-70
2021/12/28 02:28:07;;;;;;;0.00;0.00;;;1.90;99.90;;;;;;4881724;29;20033;-72
2021/12/28 02:30:34;;;;;;;0.00;0.00;;;1.90;99.90;;;;;;4883114;29;20049;-68
2021/12/28 02:33:00;;;;;;;0.00;0.00;;;1.90;99.90;;;;;;4881008;29;20108;-73
2021/12/28 02:35:26;;;;;;;0.00;0.00;;;1.90;99.90;;;;;;4881352;29;20115;-70
2021/12/28 02:37:53;;;;;;;0.00;0.00;;;1.90;99.90;;;;;;4883302;29;20040;-73
2021/12/28 02:40:28;;;;;;;0.00;0.00;;;1.90;99.90;;;;;;4880376;29;20076;-71
2021/12/28 02:42:55;;;;;;;0.00;0.00;;;1.90;99.90;;;;;;4882569;29;20416;-72
2021/12/28 02:45:26;;;;;;;0.00;0.00;;;1.90;99.90;;;;;;4879581;29;20063;-70
2021/12/28 02:47:52;;;;;;;0.00;0.00;;;1.90;99.90;;;;;;4882578;29;20039;-71
2021/12/28 02:50:30;;;;;;;0.00;0.00;;;1.90;99.90;;;;;;4879598;29;20041;-72
2021/12/28 02:52:56;;;;;;;0.00;0.00;;;1.90;99.90;;;;;;4881104;29;20037;-72
2021/12/28 02:55:25;;;;;;;0.00;0.00;;;1.90;99.90;;;;;;4880054;29;20025;-71
2021/12/28 02:57:55;;;;;;;0.00;0.00;;;1.90;99.90;;;;;;4883220;29;20049;-72
2021/12/28 03:00:41;;;;;;;0.00;0.00;;;2.00;99.90;;;;;;4881757;29;20036;-74
2021/12/28 03:03:09;;;;;;;0.00;0.00;;;2.00;99.90;;;;;;4877531;29;20036;-70
2021/12/28 03:05:35;;;;;;;0.00;0.00;;;2.00;99.90;;;;;;4880713;29;20515;-69
2021/12/28 03:08:01;;;;;;;0.00;0.00;;;2.00;99.90;;;;;;4879315;29;20033;-67
2021/12/28 03:10:26;;;;;;;0.00;0.00;;;2.10;99.90;;;;;;4882378;29;20043;-71
2021/12/28 03:12:52;;;;;;;0.00;0.00;;;2.10;99.90;;;;;;4881516;29;20123;-69
2021/12/28 03:15:18;;;;;;;0.00;0.00;;;2.10;99.90;;;;;;4881445;29;20037;-68
2021/12/28 03:17:44;;;;;;;0.00;0.00;;;2.10;99.90;;;;;;4879460;29;20396;-68
2021/12/28 03:20:15;;;;;;;0.00;0.00;;;2.20;99.90;;;;;;4880486;29;20036;-70
2021/12/28 03:22:41;;;;;;;0.00;0.00;;;2.20;99.90;;;;;;4880791;29;20093;-70
2021/12/28 03:25:08;;;;;;;0.00;0.00;;;2.20;99.90;;;;;;4883044;29;20097;-69
2021/12/28 03:27:34;;;;;;;0.00;0.00;;;2.20;99.90;;;;;;4879495;29;20049;-74
2021/12/28 03:30:00;;;;;;;0.00;0.00;;;2.20;99.90;;;;;;4880462;29;20065;-71
2021/12/28 03:32:25;;;;;;;0.00;0.00;;;2.20;99.90;;;;;;4880370;29;20037;-71
2021/12/28 03:34:51;;;;;;;0.00;0.00;;;2.30;99.90;;;;;;4882241;29;20062;-73
2021/12/28 03:37:16;;;;;;;0.00;0.00;;;2.20;99.90;;;;;;4881251;29;20021;-70
2021/12/28 03:39:42;;;;;;;0.00;0.00;;;2.20;99.90;;;;;;4879696;29;20044;-69
2021/12/28 03:42:08;;;;;;;0.00;0.00;;;2.20;99.90;;;;;;4878961;29;20025;-71
2021/12/28 03:44:34;;;;;;;0.00;0.00;;;2.20;99.90;;;;;;4878749;29;20033;-73
2021/12/28 03:47:00;;;;;;;0.00;0.00;;;2.20;99.90;;;;;;4881099;29;20033;-73
2021/12/28 03:49:26;;;;;;;0.00;0.00;;;2.20;99.90;;;;;;4879619;29;20033;-68
2021/12/28 03:51:52;;;;;;;0.00;0.00;;;2.20;99.90;;;;;;4880416;29;20519;-73
2021/12/28 03:54:18;;;;;;;0.00;0.00;;;2.20;99.90;;;;;;4883695;29;20119;-72
2021/12/28 03:56:43;;;;;;;0.00;0.00;;;2.20;99.90;;;;;;4880610;29;20040;-70
2021/12/28 03:59:09;;;;;;;0.00;0.00;;;2.30;99.90;;;;;;4881689;29;20165;-73
2021/12/28 04:01:34;;;;;;;0.00;0.00;;;2.20;99.90;;;;;;4878341;29;20033;-71
2021/12/28 04:04:00;;;;;;;0.00;0.00;;;2.20;99.90;;;;;;4879277;29;20036;-71
2021/12/28 04:06:25;;;;;;;0.00;0.00;;;2.20;99.90;;;;;;4880474;29;20035;-71
2021/12/28 04:08:51;;;;;;;0.00;0.00;;;2.20;99.90;;;;;;4881982;29;20040;-69
2021/12/28 04:13:48;;;;;;;0.00;0.00;;;2.20;99.90;;;;;;4881323;29;20442;-69
2021/12/28 04:16:14;;;;;;;0.00;0.00;;;2.20;99.90;;;;;;4879045;29;20037;-73
2021/12/28 04:18:40;;;;;;;0.00;0.00;;;2.20;99.90;;;;;;4879629;29;20493;-72
2021/12/28 04:21:07;;;;;;;0.00;0.00;;;2.20;99.90;;;;;;4879517;29;20553;-69
2021/12/28 04:23:32;;;;;;;0.00;0.00;;;2.20;99.90;;;;;;4884601;29;20606;-73
2021/12/28 04:25:58;;;;;;;0.00;0.00;;;2.20;99.90;;;;;;4878815;29;20124;-69
2021/12/28 04:28:23;;;;;;;0.00;0.00;;;2.20;99.90;;;;;;4876667;29;20032;-72
2021/12/28 04:30:49;;;;;;;0.00;0.00;;;2.20;99.90;;;;;;4879241;29;20093;-69
2021/12/28 04:33:15;;;;;;;0.00;0.00;;;2.30;99.90;;;;;;4879010;29;20037;-70
2021/12/28 04:35:41;;;;;;;0.00;0.00;;;2.30;99.90;;;;;;4878239;29;20032;-70
2021/12/28 04:38:06;;;;;;;0.00;0.00;;;2.30;99.90;;;;;;4879079;29;20040;-67
2021/12/28 04:40:32;;;;;;;0.00;0.00;;;2.30;99.90;;;;;;4878752;29;20392;-71
2021/12/28 04:42:57;;;;;;;0.00;0.00;;;2.40;99.90;;;;;;4881628;29;20039;-68
2021/12/28 04:45:23;;;;;;;0.00;0.00;;;2.40;99.90;;;;;;4877920;29;20128;-71
2021/12/28 04:47:49;;;;;;;0.00;0.00;;;2.30;99.90;;;;;;4880046;29;20041;-72
2021/12/28 04:50:15;;;;;;;0.00;0.00;;;2.30;99.90;;;;;;4877375;29;20025;-68
2021/12/28 04:52:41;;;;;;;0.00;0.00;;;2.40;99.90;;;;;;4880250;29;20036;-70
2021/12/28 04:55:15;;;;;;;0.00;0.00;;;2.30;99.90;;;;;;4879082;29;20124;-68
2021/12/28 04:57:41;;;;;;;0.00;0.00;;;2.30;99.90;;;;;;4879757;29;20108;-70
2021/12/28 05:00:11;;;;;;;0.00;0.00;;;2.30;99.90;;;;;;4879349;29;20052;-67
2021/12/28 05:02:37;;;;;;;0.00;0.00;;;2.30;99.90;;;;;;4880532;29;20029;-68
2021/12/28 05:05:03;;;;;;;0.00;0.00;;;2.30;99.90;;;;;;4878580;29;20120;-70
2021/12/28 05:07:29;;;;;;;0.00;0.00;;;2.30;99.90;;;;;;4880054;29;20037;-70
2021/12/28 05:09:57;;;;;;;0.00;0.00;;;2.30;99.90;;;;;;4879587;29;20076;-68
2021/12/28 05:12:27;;;;;;;0.00;0.00;;;2.30;99.90;;;;;;4881747;29;20048;-71
2021/12/28 05:14:53;;;;;;;0.00;0.00;;;2.30;99.90;;;;;;4877027;29;20025;-71
2021/12/28 05:17:19;;;;;;;0.00;0.00;;;2.30;99.90;;;;;;4878616;29;20088;-71
2021/12/28 05:19:45;;;;;;;0.00;0.00;;;2.30;99.90;;;;;;4878356;29;20047;-69
2021/12/28 05:22:12;;;;;;;0.00;0.00;;;2.30;99.90;;;;;;4879506;29;20029;-70
2021/12/28 05:24:38;;;;;;;0.00;0.00;;;2.30;99.90;;;;;;4879770;29;20541;-71
2021/12/28 05:27:04;;;;;;;0.00;0.00;;;2.30;99.90;;;;;;4882672;29;20111;-69
2021/12/28 05:29:30;;;;;;;0.00;0.00;;;2.40;99.90;;;;;;4881403;29;20039;-72
2021/12/28 05:31:56;;;;;;;0.00;0.00;;;2.40;99.90;;;;;;4878883;29;20045;-69
2021/12/28 05:34:22;;;;;;;0.00;0.00;;;2.40;99.90;;;;;;4878797;29;20052;-72
2021/12/28 05:36:47;;;;;;;0.00;0.00;;;2.40;99.90;;;;;;4881136;29;20044;-67
2021/12/28 05:39:13;;;;;;;0.00;0.00;;;2.40;99.90;;;;;;4879128;29;20039;-69
2021/12/28 05:41:39;;;;;;;0.00;0.00;;;2.40;99.90;;;;;;4877745;29;20063;-69
2021/12/28 05:44:04;;;;;;;0.00;0.00;;;2.40;99.90;;;;;;4875640;29;20025;-68
2021/12/28 05:46:30;;;;;;;0.00;0.00;;;2.40;99.90;;;;;;4880000;29;20525;-71
2021/12/28 05:48:56;;;;;;;0.00;0.00;;;2.40;99.90;;;;;;4879735;29;20060;-70
2021/12/28 05:51:21;;;;;;;0.00;0.00;;;2.40;99.90;;;;;;4879575;29;20545;-69
2021/12/28 05:53:47;;;;;;;0.00;0.00;;;2.40;99.90;;;;;;4877786;29;20037;-72
2021/12/28 05:56:13;;;;;;;0.00;0.00;;;2.40;99.90;;;;;;4879090;29;20069;-68
2021/12/28 05:58:38;;;;;;;0.00;0.00;;;2.50;99.90;;;;;;4878310;29;20029;-69
2021/12/28 06:01:04;;;;;;;0.00;0.00;;;2.50;99.90;;;;;;4880260;29;20454;-69
2021/12/28 06:03:29;;;;;;;0.00;0.00;;;2.50;99.90;;;;;;4877551;29;20040;-70
2021/12/28 06:05:55;;;;;;;0.00;0.00;;;2.50;99.90;;;;;;4877972;29;20033;-70
2021/12/28 06:08:21;;;;;;;0.00;0.00;;;2.50;99.90;;;;;;4877790;29;20385;-70
2021/12/28 06:10:46;;;;;;;0.00;0.00;;;2.50;99.90;;;;;;4877791;29;20045;-71
2021/12/28 06:13:12;;;;;;;0.00;0.00;;;2.50;99.90;;;;;;4878059;29;20112;-71
2021/12/28 06:15:37;;;;;;;0.00;0.00;;;2.60;99.90;;;;;;4881029;29;20132;-71
2021/12/28 06:18:03;;;;;;;0.00;0.00;;;2.60;99.90;;;;;;4876301;29;20388;-71
2021/12/28 06:20:28;;;;;;;0.00;0.00;;;2.60;99.90;;;;;;4883145;29;20477;-68
2021/12/28 06:22:54;;;;;;;0.00;0.00;;;2.70;99.90;;;;;;4883753;29;20048;-69
2021/12/28 06:25:19;;;;;;;0.00;0.00;;;2.70;99.90;;;;;;4879974;29;20103;-71
2021/12/28 06:27:45;;;;;;;0.00;0.00;;;2.80;99.90;;;;;;4878184;29;20029;-69
2021/12/28 06:30:11;;;;;;;0.00;0.00;;;2.80;99.90;;;;;;4881245;29;20076;-71
2021/12/28 06:32:37;;;;;;;0.00;0.00;;;2.70;99.90;;;;;;4888456;29;20500;-71
2021/12/28 06:35:04;;;;;;;0.00;0.00;;;2.70;99.90;;;;;;4884133;29;20120;-68
2021/12/28 06:37:29;;;;;;;0.00;0.00;;;2.70;99.90;;;;;;4882685;29;20040;-72
2021/12/28 06:39:55;;;;;;;0.00;0.00;;;2.70;99.90;;;;;;4881143;29;20041;-69
2021/12/28 06:42:20;;;;;;;0.00;0.00;;;2.70;99.90;;;;;;4887481;29;20101;-72
2021/12/28 06:44:47;;;;;;;0.00;0.00;;;2.70;99.90;;;;;;4885834;29;20064;-70
2021/12/28 06:47:13;;;;;;;0.00;0.00;;;2.60;99.90;;;;;;4888795;29;20044;-69
2021/12/28 06:49:39;;;;;;;0.00;0.00;;;2.60;99.90;;;;;;4883673;29;20040;-72
2021/12/28 06:52:06;;;;;;;0.00;0.00;;;2.60;99.90;;;;;;4895377;29;20119;-70
2021/12/28 06:54:36;;;;;;;0.00;0.00;;;2.60;99.90;;;;;;4892861;29;20068;-70
2021/12/28 06:57:04;;;;;;;0.00;0.00;;;2.60;99.90;;;;;;4883684;29;20037;-71
2021/12/28 06:59:29;;;;;;;0.00;0.00;;;2.60;99.90;;;;;;4884803;29;20392;-71
2021/12/28 07:01:58;;;;;;;0.00;0.00;;;2.60;99.90;;;;;;4883082;29;20033;-73
2021/12/28 07:04:23;;;;;;;0.00;0.00;;;2.60;99.90;;;;;;4880985;29;20049;-71
2021/12/28 07:06:49;;;;;;;0.00;0.00;;;2.70;99.90;;;;;;4886377;29;20033;-71
2021/12/28 07:09:14;;;;;;;0.00;0.00;;;2.70;99.90;;;;;;4891624;29;20522;-70
2021/12/28 07:11:40;;;;;;;0.00;0.00;;;2.70;99.90;;;;;;4882163;29;20033;-71
2021/12/28 07:14:06;;;;;;;0.00;0.00;;;2.70;99.90;;;;;;4887031;29;20032;-70
2021/12/28 07:16:31;;;;;;;0.00;0.00;;;2.70;99.90;;;;;;4887195;29;20043;-70
2021/12/28 07:18:57;;;;;;;0.00;0.00;;;2.70;99.90;;;;;;4899217;29;20044;-71
2021/12/28 07:21:22;;;;;;;0.00;0.00;;;2.70;99.90;;;;;;4882765;29;20033;-68
2021/12/28 07:23:48;;;;;;;0.00;0.00;;;2.70;99.90;;;;;;4889662;29;20071;-72
2021/12/28 07:26:13;;;;;;;0.00;0.00;;;2.70;99.90;;;;;;4891017;29;20060;-71
2021/12/28 07:28:39;;;;;;;0.00;0.00;;;2.60;99.90;;;;;;4899720;29;20028;-69
2021/12/28 07:31:05;;;;;;;0.00;0.00;;;2.60;99.90;;;;;;4889614;29;20120;-69
2021/12/28 07:33:30;;;;;;;0.00;0.00;;;2.60;99.90;;;;;;4890316;29;20028;-69
2021/12/28 07:35:56;;;;;;;0.00;0.00;;;2.60;99.90;;;;;;4894207;29;20266;-69
2021/12/28 07:38:21;;;;;;;0.00;0.00;;;2.60;99.90;;;;;;4887386;29;20389;-70
2021/12/28 07:40:47;;;;;;;0.00;0.00;;;2.60;99.90;;;;;;4894076;29;20052;-68
2021/12/28 07:43:13;;;;;;;0.00;0.00;;;2.50;99.90;;;;;;4898063;29;20044;-70
2021/12/28 07:45:38;;;;;;;0.00;0.00;;;2.60;99.90;;;;;;4887661;29;20033;-71
2021/12/28 07:48:04;;;;;;;0.00;0.00;;;2.60;99.90;;;;;;4880493;29;20044;-71
2021/12/28 07:50:30;;;;;;;0.00;0.00;;;2.50;99.90;;;;;;4878143;29;20104;-72
2021/12/28 07:52:55;;;;;;;0.00;0.00;;;2.60;99.90;;;;;;4889420;29;20037;-70
2021/12/28 07:55:21;;;;;;;0.00;0.00;;;2.60;99.90;;;;;;4889124;29;20033;-70
2021/12/28 07:57:47;;;;;;;0.00;0.00;;;2.60;99.90;;;;;;4887651;29;20056;-67
2021/12/28 08:00:16;;;;;;;0.00;0.00;;;2.70;99.90;;;;;;4888222;29;20124;-70
2021/12/28 08:02:43;;;;;;;0.00;0.00;;;2.70;99.90;;;;;;4885213;29;20037;-71
2021/12/28 08:05:10;;;;;;;0.00;0.00;;;2.70;99.90;;;;;;4885283;29;20032;-70
2021/12/28 08:07:35;;;;;;;0.00;0.00;;;2.70;99.90;;;;;;4886846;29;20105;-68
2021/12/28 08:10:01;;;;;;;0.00;0.00;;;2.70;99.90;;;;;;4885557;29;20414;-71
2021/12/28 08:12:26;;;;;;;0.00;0.00;;;2.70;99.90;;;;;;4882653;29;20060;-68
2021/12/28 08:14:52;;;;;;;0.00;0.00;;;2.70;99.90;;;;;;4879963;29;20055;-69
2021/12/28 08:17:17;;;;;;;0.00;0.00;;;2.70;99.90;;;;;;4884502;29;20389;-71
2021/12/28 08:19:43;;;;;;;0.00;0.00;;;2.70;99.90;;;;;;4880015;29;20065;-71
2021/12/28 08:22:08;;;;;;;0.00;0.00;;;2.80;99.90;;;;;;4888534;29;20039;-71
2021/12/28 08:24:34;;;;;;;0.00;0.00;;;2.80;99.90;;;;;;4883199;29;20029;-70
2021/12/28 08:27:00;;;;;;;0.00;0.00;;;2.80;99.90;;;;;;4885151;29;20380;-71
2021/12/28 08:29:26;;;;;;;0.00;0.00;;;2.80;99.90;;;;;;4880306;29;20072;-68
2021/12/28 08:31:51;;;;;;;0.00;0.00;;;2.80;99.90;;;;;;4885254;29;20178;-68
2021/12/28 08:34:17;;;;;;;0.00;0.00;;;2.90;99.90;;;;;;4895324;29;20040;-68
2021/12/28 08:36:43;;;;;;;0.00;0.00;;;2.90;99.90;;;;;;4885181;29;20040;-70
2021/12/28 08:39:08;;;;;;;0.00;0.00;;;3.00;99.90;;;;;;4889907;29;20081;-71
2021/12/28 08:41:34;;;;;;;0.00;0.00;;;3.10;99.90;;;;;;4884133;29;20392;-69
2021/12/28 08:43:59;;;;;;;0.00;0.00;;;3.10;99.90;;;;;;4880060;29;20378;-70
2021/12/28 08:46:25;;;;;;;0.00;0.00;;;3.20;99.90;;;;;;4881608;29;20033;-70
2021/12/28 08:48:51;;;;;;;0.00;0.00;;;3.30;99.90;;;;;;4884335;29;20072;-70
2021/12/28 08:51:17;;;;;;;0.00;0.00;;;3.40;99.90;;;;;;4885846;29;20086;-69
2021/12/28 08:53:43;;;;;;;0.00;0.00;;;3.40;99.90;;;;;;4880724;29;20029;-70
2021/12/28 08:56:09;;;;;;;0.00;0.00;;;3.40;99.90;;;;;;4886424;29;20032;-68
2021/12/28 08:58:34;;;;;;;0.00;0.00;;;3.40;99.90;;;;;;4886883;29;20072;-71
2021/12/28 09:01:00;;;;;;;0.00;0.00;;;3.40;99.90;;;;;;4887253;29;20041;-68
2021/12/28 09:03:27;;;;;;;0.00;0.00;;;3.40;99.90;;;;;;4887937;29;20033;-68
2021/12/28 09:05:53;;;;;;;0.00;0.00;;;3.40;99.90;;;;;;4890267;29;20065;-69
2021/12/28 09:08:18;;;;;;;0.00;0.00;;;3.40;99.90;;;;;;4887243;29;20071;-70
2021/12/28 09:10:45;;;;;;;0.00;0.00;;;3.40;99.90;;;;;;4886667;29;20044;-68
2021/12/28 09:13:11;;;;;;;0.00;0.00;;;3.50;99.90;;;;;;4891937;29;20489;-68
2021/12/28 09:15:37;;;;;;;0.00;0.00;;;3.50;99.90;;;;;;4894331;29;20088;-72
2021/12/28 09:18:03;;;;;;;0.00;0.00;;;3.50;99.90;;;;;;4890171;29;20036;-69
2021/12/28 09:20:29;;;;;;;0.00;0.00;;;3.60;99.90;;;;;;4889121;29;20036;-68
2021/12/28 09:22:56;;;;;;;0.00;0.00;;;3.70;99.90;;;;;;4887878;29;20036;-68
2021/12/28 09:25:23;;;;;;;0.00;0.00;;;3.90;99.90;;;;;;4886786;29;20028;-70
2021/12/28 09:27:50;;;;;;;0.00;0.00;;;4.00;99.90;;;;;;4882128;29;20405;-70
2021/12/28 09:30:16;;;;;;;0.00;0.00;;;4.20;99.90;;;;;;4887597;29;20193;-71
2021/12/28 09:32:42;;;;;;;0.00;0.00;;;4.30;99.90;;;;;;4894135;29;20503;-71
2021/12/28 09:35:09;;;;;;;0.00;0.00;;;4.30;99.90;;;;;;4888460;29;20047;-69
2021/12/28 09:37:35;;;;;;;0.00;0.00;;;4.40;99.90;;;;;;4879768;29;20037;-68
2021/12/28 09:40:02;;;;;;;0.00;0.00;;;4.30;99.90;;;;;;4881970;29;20044;-71
2021/12/28 09:42:29;;;;;;;0.00;0.00;;;4.20;99.90;;;;;;4878741;29;20035;-73
2021/12/28 09:44:54;;;;;;;0.00;0.00;;;4.10;99.90;;;;;;4884233;29;20036;-71
2021/12/28 09:47:20;;;;;;;0.00;0.00;;;4.00;99.90;;;;;;4886550;29;20043;-71
2021/12/28 09:49:47;;;;;;;0.00;0.00;;;3.90;99.90;;;;;;4885640;29;20120;-70
2021/12/28 09:52:14;;;;;;;0.00;0.00;;;3.90;99.90;;;;;;4885616;29;20403;-69
2021/12/28 09:54:41;;;;;;;0.00;0.00;;;4.00;99.90;;;;;;4884902;29;20041;-71
2021/12/28 09:57:06;;;;;;;0.00;0.00;;;4.20;99.90;;;;;;4882919;29;20036;-72
2021/12/28 09:59:33;;;;;;;0.00;0.00;;;4.30;99.90;;;;;;4888420;29;20040;-69
2021/12/28 10:02:01;;;;;;;0.00;0.00;;;4.30;99.90;;;;;;4886592;29;20442;-68
2021/12/28 10:04:27;;;;;;;0.00;0.00;;;4.30;99.90;;;;;;4884573;29;20033;-70
2021/12/28 10:07:19;;;;;;;0.00;0.00;;;4.20;99.90;;;;;;4885463;29;20028;-68
2021/12/28 10:09:45;;;;;;;0.00;0.00;;;4.10;99.90;;;;;;4887333;29;20409;-71
2021/12/28 10:12:10;;;;;;;0.00;0.00;;;4.00;99.90;;;;;;4888331;29;20118;-72
2021/12/28 10:14:36;;;;;;;0.00;0.00;;;4.00;99.90;;;;;;4885583;29;20041;-71
2021/12/28 10:17:06;;;;;;;0.00;0.00;;;3.90;99.90;;;;;;4882106;29;20033;-71
2021/12/28 10:19:40;;;;;;;0.00;0.00;;;3.90;99.90;;;;;;4887034;29;20412;-69
2021/12/28 10:22:42;;;;;;;0.00;0.00;;;4.00;99.90;;;;;;4890025;29;20049;-72
2021/12/28 10:25:17;;;;;;;0.00;0.00;;;4.20;99.90;;;;;;4853854;29;20117;-71
2021/12/28 10:27:51;;;;;;;0.00;0.00;;;4.30;99.90;;;;;;4883807;29;20115;-71
2021/12/28 10:30:27;;;;;;;0.00;0.00;;;4.30;99.90;;;;;;4885300;29;20052;-68
2021/12/28 10:33:03;;;;;;;0.00;0.00;;;4.30;99.90;;;;;;4886002;29;20025;-69
2021/12/28 10:35:31;;;;;;;0.00;0.00;;;4.40;99.90;;;;;;4880628;29;20040;-69
2021/12/28 10:38:00;;;;;;;0.00;0.00;;;4.40;99.90;;;;;;4889391;29;20694;-71
2021/12/28 10:40:29;;;;;;;0.00;0.00;;;4.40;99.90;;;;;;4884689;29;20037;-70
2021/12/28 10:43:07;;;;;;;0.00;0.00;;;4.50;99.90;;;;;;4882372;29;20044;-69
2021/12/28 10:45:42;;;;;;;0.00;0.00;;;4.60;99.90;;;;;;4884587;29;20089;-71
2021/12/28 10:48:17;;;;;;;0.00;0.00;;;4.60;99.90;;;;;;4884644;29;20520;-72
2021/12/28 10:50:46;;;;;;;0.00;0.00;;;4.60;99.90;;;;;;4885625;29;20125;-71
2021/12/28 10:53:40;;;;;;;0.00;0.00;;;4.70;99.90;;;;;;4884893;29;20573;-69
2021/12/28 10:56:08;;;;;;;0.00;0.00;;;4.80;99.90;;;;;;4881203;29;20734;-70
2021/12/28 10:58:41;;;;;;;0.00;0.00;;;4.80;99.90;;;;;;4885975;29;20281;-69
2021/12/28 11:01:17;;;;;;;0.00;0.00;;;4.90;99.90;;;;;;4882655;29;20248;-69
2021/12/28 11:03:46;;;;;;;0.00;0.00;;;4.90;99.90;;;;;;4886614;29;20480;-69
2021/12/28 11:06:20;;;;;;;0.00;0.00;;;4.90;99.90;;;;;;4887900;29;20152;-71
2021/12/28 11:08:48;;;;;;;0.00;0.00;;;4.90;99.90;;;;;;4884435;29;20041;-71
2021/12/28 11:11:17;;;;;;;0.00;0.00;;;5.00;99.90;;;;;;4890239;29;20048;-69
2021/12/28 11:13:43;;;;;;;0.00;0.00;;;5.10;99.90;;;;;;4886600;29;20033;-70
2021/12/28 11:16:11;;;;;;;0.00;0.00;;;5.10;99.90;;;;;;4884747;29;20682;-69
2021/12/28 11:18:42;;;;;;;0.00;0.00;;;5.10;99.90;;;;;;4887909;29;20037;-70
2021/12/28 11:24:13;;;;;;;0.00;0.00;;;5.10;99.90;;;;;;5088241;28;20389;-70
2021/12/28 11:26:42;;;;;;;0.00;0.00;;;5.10;99.90;;;;;;5072400;28;20564;-66
2021/12/28 11:29:11;;;;;;;0.00;0.00;;;5.10;99.90;;;;;;5078421;28;20387;-71
2021/12/28 11:31:38;;;;;;;0.00;0.00;;;5.10;99.90;;;;;;5074294;28;20082;-71
2021/12/28 11:34:05;;;;;;;0.00;0.00;;;5.10;99.90;;;;;;5077497;28;20032;-69
2021/12/28 11:36:42;;;;;;;0.00;0.00;;;5.10;99.90;;;;;;5075811;28;20123;-69
2021/12/28 11:39:11;;;;;;;0.00;0.00;;;5.10;99.90;;;;;;5076642;28;20032;-71
2021/12/28 11:41:38;;;;;;;0.00;0.00;;;5.20;99.90;;;;;;5075543;28;20074;-70
2021/12/28 11:44:04;;;;;;;0.00;0.00;;;5.20;99.90;;;;;;5073296;28;20028;-69
2021/12/28 11:46:30;;;;;;;0.00;0.00;;;5.30;99.90;;;;;;5076392;28;20024;-68
2021/12/28 11:48:56;;;;;;;0.00;0.00;;;5.30;99.90;;;;;;5076517;28;20054;-69
2021/12/28 11:51:24;;;;;;;0.00;0.00;;;5.30;99.90;;;;;;5073650;28;20364;-70
2021/12/28 11:53:51;;;;;;;0.00;0.00;;;5.40;99.90;;;;;;5076961;28;20396;-72
2021/12/28 11:56:20;;;;;;;0.00;0.00;;;5.30;99.90;;;;;;5076872;28;20049;-70
2021/12/28 11:58:54;;;;;;;0.00;0.00;;;5.40;99.90;;;;;;5076360;28;20033;-69
2021/12/28 12:01:42;;;;;;;0.00;0.00;;;5.40;99.90;;;;;;5074881;28;20029;-72
2021/12/28 12:04:32;;;;;;;0.00;0.00;;;5.40;99.90;;;;;;5076473;28;20040;-72
2021/12/28 12:07:09;;;;;;;0.00;0.00;;;5.50;99.90;;;;;;5074851;28;20111;-69
2021/12/28 12:09:57;;;;;;;0.00;0.00;;;5.50;99.90;;;;;;5077435;28;20016;-72
2021/12/28 12:12:27;;;;;;;0.00;0.00;;;5.60;99.90;;;;;;5074635;28;20040;-69
2021/12/28 12:14:58;;;;;;;0.00;0.00;;;5.60;99.90;;;;;;5075514;28;20032;-67
2021/12/28 12:17:30;;;;;;;0.00;0.00;;;5.60;99.90;;;;;;5073983;28;20494;-70
2021/12/28 12:19:59;;;;;;;0.00;0.00;;;5.70;99.90;;;;;;5075485;28;20221;-69
2021/12/28 12:36:48;;;;;;;0.00;0.00;;;18.90;99.90;;;;;;5025679;28;20988;-68
2021/12/28 14:14:21;;;;;;;0.00;0.00;;;17.90;84.10;;;;;;5033458;28;93000;-61
2021/12/28 14:17:51;;;;;;;0.00;0.00;;;;;;;;;;5021414;28;108713;-70
2021/12/28 14:25:23;;;;;;;0.00;0.00;;;;;;;;;;5048975;28;20396;-64
2021/12/28 14:27:56;;;;;;;0.00;0.00;;;;;;;;;;5058534;28;20041;-67
2021/12/28 14:30:23;;;;;;;0.00;0.00;;;;;;;;;;5054577;28;20029;-65
2021/12/28 14:32:50;;;;;;;0.00;0.00;;;;;;;;;;5051748;28;20082;-65
2021/12/28 14:35:16;;;;;;;0.00;0.00;;;;;;;;;;5048681;28;20057;-63
2021/12/28 14:37:43;;;;;;;0.00;0.00;;;;;;;;;;5047963;28;20037;-64
2021/12/28 14:40:19;;;;;;;0.00;0.00;;;;;;;;;;5041504;28;80410;-64
2021/12/28 14:42:46;;;;;;;0.00;0.00;;;;;;;;;;5048543;28;20044;-65
2021/12/28 14:45:26;;;;;;;0.00;0.00;;;;;;;;;;5048452;28;20080;-63
2021/12/28 14:47:51;;;;;;;0.00;0.00;;;;;;;;;;5047729;28;20427;-63
2021/12/28 14:50:24;;;;;;;0.00;0.00;;;;;;;;;;5052704;28;20083;-63
2021/12/28 14:52:54;;;;;;;0.00;0.00;;;;;;;;;;5047102;28;20036;-64
2021/12/28 14:55:29;;;;;;;0.00;0.00;;;;;;;;;;5051926;28;20104;-62
2021/12/28 14:58:01;;;;;;;0.00;0.00;;;;;;;;;;5047531;28;20033;-64
2021/12/28 15:00:50;;;;;;;0.00;0.00;;;;;;;;;;5053457;28;20035;-63
2021/12/28 15:03:22;;;;;;;0.00;0.00;;;;;;;;;;5049327;28;20040;-66
2021/12/28 15:06:05;;;;;;;0.00;0.00;;;;;;;;;;5050526;28;20020;-65
2021/12/28 15:08:34;;;;;;;0.00;0.00;;;;;;;;;;5048597;28;20388;-64